sensor_id;sensor_type;location;lat;lon;timestamp;P1;durP1;ratioP1;P2;durP2;ratioP2
11431;SDS011;5772;50.940;6.782;2023-02-11T00:02:22;34.43;;;31.87;;
11431;SDS011;5772;50.940;6.782;2023-02-11T00:04:48;32.53;;;29.40;;
11431;SDS011;5772;50.940;6.782;2023-02-11T00:07:13;32.17;;;29.67;;
11431;SDS011;5772;50.940;6.782;2023-02-11T00:09:38;32.73;;;30.03;;
11431;SDS011;5772;50.940;6.782;2023-02-11T00:12:05;33.57;;;30.93;;
11431;SDS011;5772;50.940;6.782;2023-02-11T00:14:31;33.53;;;31.00;;
11431;SDS011;5772;50.940;6.782;2023-02-11T00:16:56;36.60;;;33.67;;
11431;SDS011;5772;50.940;6.782;2023-02-11T00:19:21;34.40;;;31.13;;
11431;SDS011;5772;50.940;6.782;2023-02-11T00:21:47;33.97;;;31.03;;
11431;SDS011;5772;50.940;6.782;2023-02-11T00:24:12;33.20;;;30.50;;
11431;SDS011;5772;50.940;6.782;2023-02-11T00:26:37;34.13;;;31.17;;
11431;SDS011;5772;50.940;6.782;2023-02-11T00:29:04;32.33;;;29.93;;
11431;SDS011;5772;50.940;6.782;2023-02-11T00:31:30;34.03;;;30.70;;
11431;SDS011;5772;50.940;6.782;2023-02-11T00:33:55;33.20;;;30.50;;
11431;SDS011;5772;50.940;6.782;2023-02-11T00:36:22;31.57;;;29.23;;
11431;SDS011;5772;50.940;6.782;2023-02-11T00:38:48;32.00;;;29.53;;
11431;SDS011;5772;50.940;6.782;2023-02-11T00:41:14;32.50;;;29.73;;
11431;SDS011;5772;50.940;6.782;2023-02-11T00:43:40;34.87;;;32.03;;
11431;SDS011;5772;50.940;6.782;2023-02-11T00:46:07;31.97;;;29.50;;
11431;SDS011;5772;50.940;6.782;2023-02-11T00:48:33;33.47;;;30.70;;
11431;SDS011;5772;50.940;6.782;2023-02-11T00:50:58;31.67;;;29.27;;
11431;SDS011;5772;50.940;6.782;2023-02-11T00:53:24;32.37;;;29.63;;
11431;SDS011;5772;50.940;6.782;2023-02-11T00:55:50;30.80;;;28.13;;
11431;SDS011;5772;50.940;6.782;2023-02-11T00:58:15;29.67;;;26.93;;
11431;SDS011;5772;50.940;6.782;2023-02-11T01:00:40;29.83;;;27.30;;
11431;SDS011;5772;50.940;6.782;2023-02-11T01:03:07;30.70;;;27.93;;
11431;SDS011;5772;50.940;6.782;2023-02-11T01:05:33;32.20;;;29.30;;
11431;SDS011;5772;50.940;6.782;2023-02-11T01:07:58;32.63;;;29.73;;
11431;SDS011;5772;50.940;6.782;2023-02-11T01:10:23;31.33;;;28.60;;
11431;SDS011;5772;50.940;6.782;2023-02-11T01:12:49;32.57;;;29.70;;
11431;SDS011;5772;50.940;6.782;2023-02-11T01:15:15;31.37;;;28.47;;
11431;SDS011;5772;50.940;6.782;2023-02-11T01:17:42;31.23;;;28.00;;
11431;SDS011;5772;50.940;6.782;2023-02-11T01:20:11;30.43;;;28.03;;
11431;SDS011;5772;50.940;6.782;2023-02-11T01:22:39;31.23;;;28.50;;
11431;SDS011;5772;50.940;6.782;2023-02-11T01:25:04;31.80;;;29.00;;
11431;SDS011;5772;50.940;6.782;2023-02-11T01:27:30;32.50;;;29.50;;
11431;SDS011;5772;50.940;6.782;2023-02-11T01:29:56;32.50;;;29.53;;
11431;SDS011;5772;50.940;6.782;2023-02-11T01:32:21;32.07;;;29.17;;
11431;SDS011;5772;50.940;6.782;2023-02-11T01:34:46;31.97;;;29.00;;
11431;SDS011;5772;50.940;6.782;2023-02-11T01:37:13;33.20;;;30.10;;
11431;SDS011;5772;50.940;6.782;2023-02-11T01:39:38;30.00;;;27.30;;
11431;SDS011;5772;50.940;6.782;2023-02-11T01:42:04;31.60;;;28.47;;
11431;SDS011;5772;50.940;6.782;2023-02-11T01:44:30;30.47;;;27.97;;
11431;SDS011;5772;50.940;6.782;2023-02-11T01:46:56;30.77;;;27.93;;
11431;SDS011;5772;50.940;6.782;2023-02-11T01:49:24;32.00;;;28.93;;
11431;SDS011;5772;50.940;6.782;2023-02-11T01:51:52;33.60;;;30.63;;
11431;SDS011;5772;50.940;6.782;2023-02-11T01:54:23;32.53;;;29.80;;
11431;SDS011;5772;50.940;6.782;2023-02-11T01:56:52;33.23;;;30.40;;
11431;SDS011;5772;50.940;6.782;2023-02-11T01:59:21;34.70;;;30.93;;
11431;SDS011;5772;50.940;6.782;2023-02-11T02:01:49;32.27;;;29.60;;
11431;SDS011;5772;50.940;6.782;2023-02-11T02:04:17;31.23;;;28.73;;
11431;SDS011;5772;50.940;6.782;2023-02-11T02:06:45;31.37;;;28.67;;
11431;SDS011;5772;50.940;6.782;2023-02-11T02:09:14;33.40;;;30.47;;
11431;SDS011;5772;50.940;6.782;2023-02-11T02:11:42;32.17;;;29.40;;
11431;SDS011;5772;50.940;6.782;2023-02-11T02:14:07;31.60;;;28.53;;
11431;SDS011;5772;50.940;6.782;2023-02-11T02:16:33;30.43;;;27.67;;
11431;SDS011;5772;50.940;6.782;2023-02-11T02:19:04;30.67;;;27.97;;
11431;SDS011;5772;50.940;6.782;2023-02-11T02:24:48;31.37;;;28.77;;
11431;SDS011;5772;50.940;6.782;2023-02-11T02:27:26;30.43;;;27.27;;
11431;SDS011;5772;50.940;6.782;2023-02-11T02:30:15;33.37;;;30.20;;
11431;SDS011;5772;50.940;6.782;2023-02-11T02:32:50;32.37;;;29.33;;
11431;SDS011;5772;50.940;6.782;2023-02-11T02:35:23;31.37;;;28.17;;
11431;SDS011;5772;50.940;6.782;2023-02-11T02:37:55;31.70;;;28.77;;
11431;SDS011;5772;50.940;6.782;2023-02-11T02:40:22;31.33;;;28.43;;
11431;SDS011;5772;50.940;6.782;2023-02-11T02:42:49;33.00;;;30.07;;
11431;SDS011;5772;50.940;6.782;2023-02-11T02:45:15;31.07;;;28.17;;
11431;SDS011;5772;50.940;6.782;2023-02-11T02:47:40;33.67;;;28.10;;
11431;SDS011;5772;50.940;6.782;2023-02-11T02:50:07;32.50;;;29.33;;
11431;SDS011;5772;50.940;6.782;2023-02-11T02:52:34;32.47;;;29.27;;
11431;SDS011;5772;50.940;6.782;2023-02-11T02:55:07;31.53;;;28.57;;
11431;SDS011;5772;50.940;6.782;2023-02-11T02:57:41;33.80;;;30.50;;
11431;SDS011;5772;50.940;6.782;2023-02-11T03:00:17;33.37;;;30.37;;
11431;SDS011;5772;50.940;6.782;2023-02-11T03:02:49;31.40;;;28.37;;
11431;SDS011;5772;50.940;6.782;2023-02-11T03:05:22;36.10;;;32.77;;
11431;SDS011;5772;50.940;6.782;2023-02-11T03:07:55;32.73;;;29.80;;
11431;SDS011;5772;50.940;6.782;2023-02-11T03:10:24;32.67;;;29.57;;
11431;SDS011;5772;50.940;6.782;2023-02-11T03:12:51;33.73;;;30.77;;
11431;SDS011;5772;50.940;6.782;2023-02-11T03:15:17;36.03;;;32.30;;
11431;SDS011;5772;50.940;6.782;2023-02-11T03:17:44;35.60;;;32.07;;
11431;SDS011;5772;50.940;6.782;2023-02-11T03:20:12;35.47;;;32.30;;
11431;SDS011;5772;50.940;6.782;2023-02-11T03:22:41;33.63;;;30.57;;
11431;SDS011;5772;50.940;6.782;2023-02-11T03:25:09;32.87;;;30.10;;
11431;SDS011;5772;50.940;6.782;2023-02-11T03:27:37;35.13;;;31.87;;
11431;SDS011;5772;50.940;6.782;2023-02-11T03:30:05;36.03;;;32.90;;
11431;SDS011;5772;50.940;6.782;2023-02-11T03:32:35;34.30;;;30.70;;
11431;SDS011;5772;50.940;6.782;2023-02-11T03:35:02;32.37;;;29.80;;
11431;SDS011;5772;50.940;6.782;2023-02-11T03:37:31;34.23;;;30.80;;
11431;SDS011;5772;50.940;6.782;2023-02-11T03:40:01;36.53;;;33.03;;
11431;SDS011;5772;50.940;6.782;2023-02-11T03:42:29;32.53;;;29.83;;
11431;SDS011;5772;50.940;6.782;2023-02-11T03:44:58;33.73;;;30.73;;
11431;SDS011;5772;50.940;6.782;2023-02-11T03:47:26;35.60;;;32.00;;
11431;SDS011;5772;50.940;6.782;2023-02-11T03:49:53;32.50;;;29.60;;
11431;SDS011;5772;50.940;6.782;2023-02-11T03:52:19;33.50;;;29.97;;
11431;SDS011;5772;50.940;6.782;2023-02-11T03:54:46;33.37;;;30.37;;
11431;SDS011;5772;50.940;6.782;2023-02-11T03:57:15;34.73;;;31.40;;
11431;SDS011;5772;50.940;6.782;2023-02-11T04:02:24;33.13;;;29.83;;
11431;SDS011;5772;50.940;6.782;2023-02-11T04:04:51;33.57;;;30.37;;
11431;SDS011;5772;50.940;6.782;2023-02-11T04:07:17;33.73;;;30.57;;
11431;SDS011;5772;50.940;6.782;2023-02-11T04:09:42;34.73;;;31.33;;
11431;SDS011;5772;50.940;6.782;2023-02-11T04:12:07;32.27;;;29.27;;
11431;SDS011;5772;50.940;6.782;2023-02-11T04:14:34;34.63;;;31.23;;
11431;SDS011;5772;50.940;6.782;2023-02-11T04:17:00;34.13;;;30.83;;
11431;SDS011;5772;50.940;6.782;2023-02-11T04:19:25;37.13;;;33.70;;
11431;SDS011;5772;50.940;6.782;2023-02-11T04:21:50;33.73;;;31.23;;
11431;SDS011;5772;50.940;6.782;2023-02-11T04:24:16;32.47;;;29.97;;
11431;SDS011;5772;50.940;6.782;2023-02-11T04:26:41;33.67;;;30.80;;
11431;SDS011;5772;50.940;6.782;2023-02-11T04:29:06;34.40;;;30.97;;
11431;SDS011;5772;50.940;6.782;2023-02-11T04:31:33;30.43;;;27.93;;
11431;SDS011;5772;50.940;6.782;2023-02-11T04:33:58;32.33;;;29.10;;
11431;SDS011;5772;50.940;6.782;2023-02-11T04:36:24;32.23;;;29.17;;
11431;SDS011;5772;50.940;6.782;2023-02-11T04:38:49;32.40;;;29.37;;
11431;SDS011;5772;50.940;6.782;2023-02-11T04:41:15;32.70;;;30.10;;
11431;SDS011;5772;50.940;6.782;2023-02-11T04:43:40;29.33;;;27.07;;
11431;SDS011;5772;50.940;6.782;2023-02-11T04:46:05;34.00;;;30.40;;
11431;SDS011;5772;50.940;6.782;2023-02-11T04:48:32;31.83;;;29.03;;
11431;SDS011;5772;50.940;6.782;2023-02-11T04:50:57;33.23;;;30.00;;
11431;SDS011;5772;50.940;6.782;2023-02-11T04:53:23;31.67;;;29.10;;
11431;SDS011;5772;50.940;6.782;2023-02-11T04:55:48;31.43;;;28.70;;
11431;SDS011;5772;50.940;6.782;2023-02-11T04:58:13;32.43;;;29.50;;
11431;SDS011;5772;50.940;6.782;2023-02-11T05:00:39;31.37;;;28.20;;
11431;SDS011;5772;50.940;6.782;2023-02-11T05:03:04;31.90;;;28.67;;
11431;SDS011;5772;50.940;6.782;2023-02-11T05:05:31;31.97;;;28.93;;
11431;SDS011;5772;50.940;6.782;2023-02-11T05:07:56;31.83;;;28.90;;
11431;SDS011;5772;50.940;6.782;2023-02-11T05:10:21;31.47;;;28.73;;
11431;SDS011;5772;50.940;6.782;2023-02-11T05:12:47;32.73;;;29.67;;
11431;SDS011;5772;50.940;6.782;2023-02-11T05:15:12;32.63;;;29.67;;
11431;SDS011;5772;50.940;6.782;2023-02-11T05:17:38;32.40;;;29.40;;
11431;SDS011;5772;50.940;6.782;2023-02-11T05:20:03;31.20;;;28.27;;
11431;SDS011;5772;50.940;6.782;2023-02-11T05:22:31;30.67;;;27.70;;
11431;SDS011;5772;50.940;6.782;2023-02-11T05:24:56;31.77;;;28.77;;
11431;SDS011;5772;50.940;6.782;2023-02-11T05:27:21;29.93;;;26.90;;
11431;SDS011;5772;50.940;6.782;2023-02-11T05:29:47;32.77;;;29.67;;
11431;SDS011;5772;50.940;6.782;2023-02-11T05:32:12;31.87;;;28.70;;
11431;SDS011;5772;50.940;6.782;2023-02-11T05:34:37;31.53;;;28.70;;
11431;SDS011;5772;50.940;6.782;2023-02-11T05:37:03;35.07;;;31.37;;
11431;SDS011;5772;50.940;6.782;2023-02-11T05:39:29;35.17;;;32.23;;
11431;SDS011;5772;50.940;6.782;2023-02-11T05:41:55;33.67;;;30.23;;
11431;SDS011;5772;50.940;6.782;2023-02-11T05:44:20;32.93;;;30.03;;
11431;SDS011;5772;50.940;6.782;2023-02-11T05:46:48;34.07;;;30.90;;
11431;SDS011;5772;50.940;6.782;2023-02-11T05:49:15;33.17;;;30.00;;
11431;SDS011;5772;50.940;6.782;2023-02-11T05:51:40;33.10;;;29.80;;
11431;SDS011;5772;50.940;6.782;2023-02-11T05:54:06;32.73;;;29.80;;
11431;SDS011;5772;50.940;6.782;2023-02-11T05:56:32;34.53;;;31.17;;
11431;SDS011;5772;50.940;6.782;2023-02-11T05:58:58;35.37;;;31.37;;
11431;SDS011;5772;50.940;6.782;2023-02-11T06:01:23;36.10;;;32.70;;
11431;SDS011;5772;50.940;6.782;2023-02-11T06:03:48;33.47;;;30.30;;
11431;SDS011;5772;50.940;6.782;2023-02-11T06:06:14;37.13;;;33.33;;
11431;SDS011;5772;50.940;6.782;2023-02-11T06:08:39;34.53;;;31.27;;
11431;SDS011;5772;50.940;6.782;2023-02-11T06:11:05;33.83;;;30.83;;
11431;SDS011;5772;50.940;6.782;2023-02-11T06:13:33;35.43;;;32.33;;
11431;SDS011;5772;50.940;6.782;2023-02-11T06:15:59;35.47;;;31.87;;
11431;SDS011;5772;50.940;6.782;2023-02-11T06:18:24;34.20;;;31.00;;
11431;SDS011;5772;50.940;6.782;2023-02-11T06:20:50;32.80;;;29.93;;
11431;SDS011;5772;50.940;6.782;2023-02-11T06:23:15;34.67;;;30.97;;
11431;SDS011;5772;50.940;6.782;2023-02-11T06:25:41;34.37;;;30.73;;
11431;SDS011;5772;50.940;6.782;2023-02-11T06:28:06;33.80;;;30.40;;
11431;SDS011;5772;50.940;6.782;2023-02-11T06:30:33;33.93;;;31.07;;
11431;SDS011;5772;50.940;6.782;2023-02-11T06:32:58;34.63;;;31.73;;
11431;SDS011;5772;50.940;6.782;2023-02-11T06:35:23;36.57;;;33.03;;
11431;SDS011;5772;50.940;6.782;2023-02-11T06:37:49;34.20;;;30.90;;
11431;SDS011;5772;50.940;6.782;2023-02-11T06:40:14;34.73;;;31.30;;
11431;SDS011;5772;50.940;6.782;2023-02-11T06:42:39;36.93;;;33.27;;
11431;SDS011;5772;50.940;6.782;2023-02-11T06:45:05;34.63;;;30.40;;
11431;SDS011;5772;50.940;6.782;2023-02-11T06:47:32;35.77;;;32.20;;
11431;SDS011;5772;50.940;6.782;2023-02-11T06:49:58;33.47;;;30.47;;
11431;SDS011;5772;50.940;6.782;2023-02-11T06:52:23;33.97;;;30.90;;
11431;SDS011;5772;50.940;6.782;2023-02-11T06:54:49;35.60;;;32.20;;
11431;SDS011;5772;50.940;6.782;2023-02-11T06:57:14;32.63;;;29.87;;
11431;SDS011;5772;50.940;6.782;2023-02-11T06:59:39;35.00;;;32.17;;
11431;SDS011;5772;50.940;6.782;2023-02-11T07:02:05;35.07;;;32.17;;
11431;SDS011;5772;50.940;6.782;2023-02-11T07:04:33;35.67;;;32.40;;
11431;SDS011;5772;50.940;6.782;2023-02-11T07:06:59;34.00;;;30.53;;
11431;SDS011;5772;50.940;6.782;2023-02-11T07:09:24;36.50;;;33.43;;
11431;SDS011;5772;50.940;6.782;2023-02-11T07:11:49;35.23;;;31.83;;
11431;SDS011;5772;50.940;6.782;2023-02-11T07:14:15;36.77;;;33.13;;
11431;SDS011;5772;50.940;6.782;2023-02-11T07:16:40;37.77;;;33.87;;
11431;SDS011;5772;50.940;6.782;2023-02-11T07:19:05;33.60;;;30.23;;
11431;SDS011;5772;50.940;6.782;2023-02-11T07:21:32;35.60;;;31.03;;
11431;SDS011;5772;50.940;6.782;2023-02-11T07:23:57;35.00;;;31.67;;
11431;SDS011;5772;50.940;6.782;2023-02-11T07:26:23;36.13;;;32.53;;
11431;SDS011;5772;50.940;6.782;2023-02-11T07:28:49;39.20;;;32.60;;
11431;SDS011;5772;50.940;6.782;2023-02-11T07:31:15;36.03;;;32.70;;
11431;SDS011;5772;50.940;6.782;2023-02-11T07:33:42;35.33;;;31.90;;
11431;SDS011;5772;50.940;6.782;2023-02-11T07:36:07;34.53;;;31.37;;
11431;SDS011;5772;50.940;6.782;2023-02-11T07:38:36;37.23;;;33.60;;
11431;SDS011;5772;50.940;6.782;2023-02-11T07:41:01;35.87;;;32.27;;
11431;SDS011;5772;50.940;6.782;2023-02-11T07:43:28;36.70;;;32.77;;
11431;SDS011;5772;50.940;6.782;2023-02-11T07:45:53;35.57;;;32.50;;
11431;SDS011;5772;50.940;6.782;2023-02-11T07:48:19;36.43;;;32.83;;
11431;SDS011;5772;50.940;6.782;2023-02-11T07:50:44;38.23;;;34.23;;
11431;SDS011;5772;50.940;6.782;2023-02-11T07:53:09;39.23;;;35.77;;
11431;SDS011;5772;50.940;6.782;2023-02-11T07:55:36;39.23;;;34.90;;
11431;SDS011;5772;50.940;6.782;2023-02-11T07:58:02;37.53;;;33.97;;
11431;SDS011;5772;50.940;6.782;2023-02-11T08:00:27;38.10;;;34.07;;
11431;SDS011;5772;50.940;6.782;2023-02-11T08:02:52;41.03;;;37.30;;
11431;SDS011;5772;50.940;6.782;2023-02-11T08:05:18;41.73;;;37.77;;
11431;SDS011;5772;50.940;6.782;2023-02-11T08:07:43;36.87;;;33.40;;
11431;SDS011;5772;50.940;6.782;2023-02-11T08:10:08;37.90;;;31.70;;
11431;SDS011;5772;50.940;6.782;2023-02-11T08:12:35;39.33;;;35.90;;
11431;SDS011;5772;50.940;6.782;2023-02-11T08:15:00;40.53;;;36.70;;
11431;SDS011;5772;50.940;6.782;2023-02-11T08:17:26;38.70;;;35.07;;
11431;SDS011;5772;50.940;6.782;2023-02-11T08:19:51;37.90;;;34.17;;
11431;SDS011;5772;50.940;6.782;2023-02-11T08:22:17;40.60;;;36.33;;
11431;SDS011;5772;50.940;6.782;2023-02-11T08:24:42;37.70;;;33.63;;
11431;SDS011;5772;50.940;6.782;2023-02-11T08:27:08;42.10;;;37.93;;
11431;SDS011;5772;50.940;6.782;2023-02-11T08:29:35;39.93;;;36.13;;
11431;SDS011;5772;50.940;6.782;2023-02-11T08:32:00;37.53;;;34.10;;
11431;SDS011;5772;50.940;6.782;2023-02-11T08:34:26;37.30;;;33.97;;
11431;SDS011;5772;50.940;6.782;2023-02-11T08:36:52;36.23;;;33.07;;
11431;SDS011;5772;50.940;6.782;2023-02-11T08:39:18;40.73;;;36.80;;
11431;SDS011;5772;50.940;6.782;2023-02-11T08:41:44;38.47;;;34.43;;
11431;SDS011;5772;50.940;6.782;2023-02-11T08:44:09;37.13;;;33.27;;
11431;SDS011;5772;50.940;6.782;2023-02-11T08:46:36;37.30;;;33.43;;
11431;SDS011;5772;50.940;6.782;2023-02-11T08:49:01;40.20;;;36.23;;
11431;SDS011;5772;50.940;6.782;2023-02-11T08:51:27;37.60;;;34.33;;
11431;SDS011;5772;50.940;6.782;2023-02-11T08:53:53;41.07;;;35.80;;
11431;SDS011;5772;50.940;6.782;2023-02-11T08:56:19;36.77;;;33.83;;
11431;SDS011;5772;50.940;6.782;2023-02-11T08:58:45;37.30;;;33.97;;
11431;SDS011;5772;50.940;6.782;2023-02-11T09:01:10;36.83;;;33.67;;
11431;SDS011;5772;50.940;6.782;2023-02-11T09:03:38;36.13;;;33.03;;
11431;SDS011;5772;50.940;6.782;2023-02-11T09:06:04;37.07;;;33.47;;
11431;SDS011;5772;50.940;6.782;2023-02-11T09:08:30;38.97;;;34.27;;
11431;SDS011;5772;50.940;6.782;2023-02-11T09:10:55;40.30;;;36.13;;
11431;SDS011;5772;50.940;6.782;2023-02-11T09:13:21;35.83;;;32.40;;
11431;SDS011;5772;50.940;6.782;2023-02-11T09:15:46;37.80;;;33.97;;
11431;SDS011;5772;50.940;6.782;2023-02-11T09:18:11;37.27;;;34.03;;
11431;SDS011;5772;50.940;6.782;2023-02-11T09:20:38;35.57;;;32.23;;
11431;SDS011;5772;50.940;6.782;2023-02-11T09:23:03;36.70;;;33.50;;
11431;SDS011;5772;50.940;6.782;2023-02-11T09:25:29;35.80;;;32.10;;
11431;SDS011;5772;50.940;6.782;2023-02-11T09:27:54;34.63;;;31.37;;
11431;SDS011;5772;50.940;6.782;2023-02-11T09:30:19;34.73;;;31.47;;
11431;SDS011;5772;50.940;6.782;2023-02-11T09:32:45;35.70;;;32.30;;
11431;SDS011;5772;50.940;6.782;2023-02-11T09:35:10;36.93;;;33.60;;
11431;SDS011;5772;50.940;6.782;2023-02-11T09:37:37;34.67;;;31.40;;
11431;SDS011;5772;50.940;6.782;2023-02-11T09:40:02;37.77;;;33.90;;
11431;SDS011;5772;50.940;6.782;2023-02-11T09:42:37;36.80;;;33.50;;
11431;SDS011;5772;50.940;6.782;2023-02-11T09:45:08;36.37;;;33.33;;
11431;SDS011;5772;50.940;6.782;2023-02-11T09:47:38;35.63;;;32.50;;
11431;SDS011;5772;50.940;6.782;2023-02-11T09:50:11;36.60;;;33.33;;
11431;SDS011;5772;50.940;6.782;2023-02-11T09:52:40;36.03;;;32.60;;
11431;SDS011;5772;50.940;6.782;2023-02-11T09:55:13;37.80;;;34.70;;
11431;SDS011;5772;50.940;6.782;2023-02-11T09:57:41;36.50;;;33.27;;
11431;SDS011;5772;50.940;6.782;2023-02-11T10:00:15;37.53;;;34.17;;
11431;SDS011;5772;50.940;6.782;2023-02-11T10:02:45;35.47;;;32.63;;
11431;SDS011;5772;50.940;6.782;2023-02-11T10:05:30;37.77;;;34.47;;
11431;SDS011;5772;50.940;6.782;2023-02-11T10:08:05;37.70;;;34.10;;
11431;SDS011;5772;50.940;6.782;2023-02-11T10:10:39;42.83;;;38.93;;
11431;SDS011;5772;50.940;6.782;2023-02-11T10:13:16;38.53;;;35.23;;
11431;SDS011;5772;50.940;6.782;2023-02-11T10:16:02;43.90;;;40.20;;
11431;SDS011;5772;50.940;6.782;2023-02-11T10:18:41;39.90;;;36.80;;
11431;SDS011;5772;50.940;6.782;2023-02-11T10:21:18;42.90;;;39.60;;
11431;SDS011;5772;50.940;6.782;2023-02-11T10:23:54;43.37;;;40.10;;
11431;SDS011;5772;50.940;6.782;2023-02-11T10:26:21;45.20;;;41.90;;
11431;SDS011;5772;50.940;6.782;2023-02-11T10:28:48;44.37;;;40.67;;
11431;SDS011;5772;50.940;6.782;2023-02-11T10:31:16;45.23;;;41.47;;
11431;SDS011;5772;50.940;6.782;2023-02-11T10:33:43;42.43;;;39.10;;
11431;SDS011;5772;50.940;6.782;2023-02-11T10:36:10;41.90;;;38.40;;
11431;SDS011;5772;50.940;6.782;2023-02-11T10:38:36;42.20;;;39.03;;
11431;SDS011;5772;50.940;6.782;2023-02-11T10:41:03;44.23;;;40.70;;
11431;SDS011;5772;50.940;6.782;2023-02-11T10:43:29;43.97;;;40.70;;
11431;SDS011;5772;50.940;6.782;2023-02-11T10:45:56;45.17;;;41.90;;
11431;SDS011;5772;50.940;6.782;2023-02-11T10:48:35;44.30;;;41.17;;
11431;SDS011;5772;50.940;6.782;2023-02-11T10:51:06;46.70;;;43.00;;
11431;SDS011;5772;50.940;6.782;2023-02-11T10:53:32;44.07;;;40.40;;
11431;SDS011;5772;50.940;6.782;2023-02-11T10:55:57;43.57;;;40.20;;
11431;SDS011;5772;50.940;6.782;2023-02-11T10:58:25;43.67;;;40.23;;
11431;SDS011;5772;50.940;6.782;2023-02-11T11:00:53;43.40;;;39.87;;
11431;SDS011;5772;50.940;6.782;2023-02-11T11:03:20;42.27;;;38.93;;
11431;SDS011;5772;50.940;6.782;2023-02-11T11:05:47;46.53;;;42.17;;
11431;SDS011;5772;50.940;6.782;2023-02-11T11:08:13;46.00;;;41.93;;
11431;SDS011;5772;50.940;6.782;2023-02-11T11:10:41;42.47;;;39.00;;
11431;SDS011;5772;50.940;6.782;2023-02-11T11:13:22;43.30;;;39.87;;
11431;SDS011;5772;50.940;6.782;2023-02-11T11:16:05;45.30;;;41.43;;
11431;SDS011;5772;50.940;6.782;2023-02-11T11:18:33;43.87;;;40.50;;
11431;SDS011;5772;50.940;6.782;2023-02-11T11:20:58;42.97;;;39.53;;
11431;SDS011;5772;50.940;6.782;2023-02-11T11:23:25;43.27;;;39.83;;
11431;SDS011;5772;50.940;6.782;2023-02-11T11:25:59;43.20;;;39.47;;
11431;SDS011;5772;50.940;6.782;2023-02-11T11:28:28;43.10;;;39.53;;
11431;SDS011;5772;50.940;6.782;2023-02-11T11:30:56;46.30;;;42.80;;
11431;SDS011;5772;50.940;6.782;2023-02-11T11:33:24;44.57;;;40.90;;
11431;SDS011;5772;50.940;6.782;2023-02-11T11:35:54;45.53;;;41.87;;
11431;SDS011;5772;50.940;6.782;2023-02-11T11:38:22;42.07;;;38.43;;
11431;SDS011;5772;50.940;6.782;2023-02-11T11:40:48;43.20;;;39.13;;
11431;SDS011;5772;50.940;6.782;2023-02-11T11:43:58;44.50;;;40.87;;
11431;SDS011;5772;50.940;6.782;2023-02-11T11:46:26;45.20;;;41.60;;
11431;SDS011;5772;50.940;6.782;2023-02-11T11:48:53;45.77;;;41.30;;
11431;SDS011;5772;50.940;6.782;2023-02-11T11:51:22;47.10;;;42.70;;
11431;SDS011;5772;50.940;6.782;2023-02-11T11:53:50;40.20;;;36.93;;
11431;SDS011;5772;50.940;6.782;2023-02-11T11:56:19;42.13;;;38.13;;
11431;SDS011;5772;50.940;6.782;2023-02-11T11:58:46;40.03;;;36.53;;
11431;SDS011;5772;50.940;6.782;2023-02-11T12:01:18;42.23;;;38.57;;
11431;SDS011;5772;50.940;6.782;2023-02-11T12:03:59;40.30;;;36.77;;
11431;SDS011;5772;50.940;6.782;2023-02-11T12:06:31;42.00;;;38.50;;
11431;SDS011;5772;50.940;6.782;2023-02-11T12:09:04;39.27;;;36.00;;
11431;SDS011;5772;50.940;6.782;2023-02-11T12:11:37;39.20;;;35.77;;
11431;SDS011;5772;50.940;6.782;2023-02-11T12:14:19;39.60;;;35.87;;
11431;SDS011;5772;50.940;6.782;2023-02-11T12:16:51;39.27;;;35.70;;
11431;SDS011;5772;50.940;6.782;2023-02-11T12:19:30;41.80;;;37.57;;
11431;SDS011;5772;50.940;6.782;2023-02-11T12:22:24;42.47;;;38.60;;
11431;SDS011;5772;50.940;6.782;2023-02-11T12:27:51;37.37;;;34.00;;
11431;SDS011;5772;50.940;6.782;2023-02-11T12:30:31;37.50;;;34.13;;
11431;SDS011;5772;50.940;6.782;2023-02-11T12:33:05;35.77;;;32.33;;
11431;SDS011;5772;50.940;6.782;2023-02-11T12:35:41;40.13;;;36.43;;
11431;SDS011;5772;50.940;6.782;2023-02-11T12:38:17;35.87;;;32.27;;
11431;SDS011;5772;50.940;6.782;2023-02-11T12:40:51;35.17;;;32.13;;
11431;SDS011;5772;50.940;6.782;2023-02-11T12:43:22;37.50;;;33.83;;
11431;SDS011;5772;50.940;6.782;2023-02-11T12:45:59;35.43;;;31.70;;
11431;SDS011;5772;50.940;6.782;2023-02-11T12:48:38;36.13;;;32.60;;
11431;SDS011;5772;50.940;6.782;2023-02-11T12:51:20;35.47;;;31.87;;
11431;SDS011;5772;50.940;6.782;2023-02-11T12:53:55;34.93;;;31.43;;
11431;SDS011;5772;50.940;6.782;2023-02-11T12:56:33;37.17;;;33.43;;
11431;SDS011;5772;50.940;6.782;2023-02-11T12:59:01;35.97;;;32.40;;
11431;SDS011;5772;50.940;6.782;2023-02-11T13:01:30;37.07;;;33.43;;
11431;SDS011;5772;50.940;6.782;2023-02-11T13:04:00;38.47;;;35.17;;
11431;SDS011;5772;50.940;6.782;2023-02-11T13:06:32;39.10;;;32.23;;
11431;SDS011;5772;50.940;6.782;2023-02-11T13:09:00;38.50;;;35.00;;
11431;SDS011;5772;50.940;6.782;2023-02-11T13:11:28;37.07;;;33.43;;
11431;SDS011;5772;50.940;6.782;2023-02-11T13:13:59;35.93;;;32.40;;
11431;SDS011;5772;50.940;6.782;2023-02-11T13:16:29;39.13;;;35.40;;
11431;SDS011;5772;50.940;6.782;2023-02-11T13:19:00;37.73;;;34.27;;
11431;SDS011;5772;50.940;6.782;2023-02-11T13:24:28;39.33;;;35.10;;
11431;SDS011;5772;50.940;6.782;2023-02-11T13:26:59;39.50;;;34.67;;
11431;SDS011;5772;50.940;6.782;2023-02-11T13:29:34;37.33;;;33.53;;
11431;SDS011;5772;50.940;6.782;2023-02-11T13:32:05;37.27;;;33.30;;
11431;SDS011;5772;50.940;6.782;2023-02-11T13:37:21;39.57;;;35.63;;
11431;SDS011;5772;50.940;6.782;2023-02-11T13:39:54;41.33;;;37.00;;
11431;SDS011;5772;50.940;6.782;2023-02-11T13:42:20;40.07;;;36.50;;
11431;SDS011;5772;50.940;6.782;2023-02-11T13:44:46;38.23;;;34.13;;
11431;SDS011;5772;50.940;6.782;2023-02-11T13:47:15;39.50;;;35.57;;
11431;SDS011;5772;50.940;6.782;2023-02-11T13:49:49;39.87;;;36.10;;
11431;SDS011;5772;50.940;6.782;2023-02-11T13:52:20;37.47;;;34.37;;
11431;SDS011;5772;50.940;6.782;2023-02-11T13:54:48;42.17;;;37.67;;
11431;SDS011;5772;50.940;6.782;2023-02-11T13:57:29;40.23;;;36.20;;
11431;SDS011;5772;50.940;6.782;2023-02-11T13:59:58;39.80;;;35.97;;
11431;SDS011;5772;50.940;6.782;2023-02-11T14:02:26;41.00;;;36.60;;
11431;SDS011;5772;50.940;6.782;2023-02-11T14:05:11;41.13;;;36.83;;
11431;SDS011;5772;50.940;6.782;2023-02-11T14:10:50;40.93;;;36.60;;
11431;SDS011;5772;50.940;6.782;2023-02-11T14:13:18;39.50;;;35.60;;
11431;SDS011;5772;50.940;6.782;2023-02-11T14:15:47;39.87;;;36.00;;
11431;SDS011;5772;50.940;6.782;2023-02-11T14:21:05;41.33;;;37.17;;
11431;SDS011;5772;50.940;6.782;2023-02-11T14:23:36;38.53;;;34.90;;
11431;SDS011;5772;50.940;6.782;2023-02-11T14:26:05;40.60;;;36.33;;
11431;SDS011;5772;50.940;6.782;2023-02-11T14:28:42;39.30;;;35.93;;
11431;SDS011;5772;50.940;6.782;2023-02-11T14:31:08;41.77;;;38.00;;
11431;SDS011;5772;50.940;6.782;2023-02-11T14:36:45;40.57;;;36.17;;
11431;SDS011;5772;50.940;6.782;2023-02-11T14:39:23;33.37;;;29.83;;
11431;SDS011;5772;50.940;6.782;2023-02-11T14:41:55;38.70;;;32.97;;
11431;SDS011;5772;50.940;6.782;2023-02-11T14:44:21;40.93;;;36.70;;
11431;SDS011;5772;50.940;6.782;2023-02-11T14:46:48;41.77;;;37.37;;
11431;SDS011;5772;50.940;6.782;2023-02-11T14:49:17;38.87;;;35.50;;
11431;SDS011;5772;50.940;6.782;2023-02-11T14:51:52;41.40;;;37.07;;
11431;SDS011;5772;50.940;6.782;2023-02-11T14:54:19;42.20;;;37.47;;
11431;SDS011;5772;50.940;6.782;2023-02-11T14:59:32;42.00;;;36.27;;
11431;SDS011;5772;50.940;6.782;2023-02-11T15:01:57;40.67;;;36.70;;
11431;SDS011;5772;50.940;6.782;2023-02-11T15:04:23;37.20;;;33.53;;
11431;SDS011;5772;50.940;6.782;2023-02-11T15:06:50;46.37;;;37.37;;